createdAt,value
2019-02-15T00:00:10.794Z,10.60
2019-02-15T00:02:39.352Z,10.97
2019-02-15T00:05:07.136Z,10.83
2019-02-15T00:07:35.073Z,12.20
2019-02-15T00:10:03.140Z,11.67
2019-02-15T00:12:30.921Z,11.53
2019-02-15T00:14:58.799Z,8.93
2019-02-15T00:17:46.175Z,10.87
2019-02-15T00:20:19.834Z,9.83
2019-02-15T00:22:47.577Z,12.03
2019-02-15T00:25:15.355Z,11.03
2019-02-15T00:27:43.098Z,8.23
2019-02-15T00:30:11.594Z,12.33
2019-02-15T00:32:39.356Z,10.93
2019-02-15T00:35:07.254Z,12.40
2019-02-15T00:37:35.142Z,12.57
2019-02-15T00:40:03.112Z,13.60
2019-02-15T00:42:30.904Z,11.90
2019-02-15T00:44:58.664Z,11.23
2019-02-15T00:47:37.017Z,12.43
2019-02-15T00:50:42.938Z,12.43
2019-02-15T00:53:26.222Z,10.70
2019-02-15T00:56:22.552Z,11.37
2019-02-15T00:59:24.843Z,11.63
2019-02-15T01:02:06.123Z,10.93
2019-02-15T01:04:59.393Z,11.10
2019-02-15T01:07:37.186Z,11.20
2019-02-15T01:10:23.195Z,10.80
2019-02-15T01:12:58.273Z,8.83
2019-02-15T01:15:26.017Z,8.27
2019-02-15T01:17:53.779Z,10.63
2019-02-15T01:20:21.507Z,8.87
2019-02-15T01:22:49.453Z,9.53
2019-02-15T01:25:17.323Z,9.00
2019-02-15T01:28:16.624Z,9.17
2019-02-15T01:31:02.389Z,8.30
2019-02-15T01:33:55.839Z,8.57
2019-02-15T01:36:35.302Z,9.97
2019-02-15T01:39:19.107Z,9.13
2019-02-15T01:42:06.527Z,10.83
2019-02-15T01:44:40.476Z,9.90
2019-02-15T01:47:12.519Z,7.80
2019-02-15T01:49:40.483Z,10.27
2019-02-15T01:52:08.397Z,8.57
2019-02-15T01:54:36.324Z,9.13
2019-02-15T01:57:04.081Z,9.50
2019-02-15T01:59:32.009Z,7.70
2019-02-15T02:01:59.768Z,10.20
2019-02-15T02:04:27.717Z,9.57
2019-02-15T02:06:55.650Z,9.70
2019-02-15T02:09:23.595Z,10.40
2019-02-15T02:11:51.365Z,9.40
2019-02-15T02:14:19.320Z,11.20
2019-02-15T02:16:47.094Z,9.37
2019-02-15T02:19:14.962Z,10.93
2019-02-15T02:21:42.718Z,9.33
2019-02-15T02:24:10.703Z,8.53
2019-02-15T02:26:38.470Z,9.73
2019-02-15T02:29:06.390Z,8.73
2019-02-15T02:31:34.158Z,9.77
2019-02-15T02:34:02.061Z,11.70
2019-02-15T02:36:53.903Z,9.37
2019-02-15T02:39:22.177Z,9.87
2019-02-15T02:41:50.050Z,9.63
2019-02-15T02:44:20.895Z,10.53
2019-02-15T02:46:48.680Z,12.23
2019-02-15T02:49:16.718Z,13.13
2019-02-15T02:51:44.594Z,11.37
2019-02-15T02:54:12.417Z,15.57
2019-02-15T02:56:40.225Z,14.10
2019-02-15T02:59:08.276Z,14.90
2019-02-15T03:01:36.029Z,16.33
2019-02-15T03:04:03.973Z,12.83
2019-02-15T03:06:31.788Z,12.50
2019-02-15T03:08:59.748Z,10.33
2019-02-15T03:11:27.551Z,11.03
2019-02-15T03:13:55.335Z,10.63
2019-02-15T03:16:23.119Z,11.90
2019-02-15T03:18:50.920Z,9.13
2019-02-15T03:21:19.457Z,10.17
2019-02-15T03:23:47.490Z,10.90
2019-02-15T03:26:15.425Z,13.30
2019-02-15T03:28:43.193Z,11.27
2019-02-15T03:31:10.981Z,12.60
2019-02-15T03:33:38.752Z,12.83
2019-02-15T03:36:08.816Z,11.97
2019-02-15T03:38:50.573Z,11.23
2019-02-15T03:41:28.811Z,11.90
2019-02-15T03:43:57.370Z,10.17
2019-02-15T03:46:25.487Z,10.07
2019-02-15T03:48:53.439Z,10.67
2019-02-15T03:51:21.481Z,10.37
2019-02-15T03:53:49.241Z,9.10
2019-02-15T03:56:17.187Z,9.17
2019-02-15T03:58:45.280Z,9.67
2019-02-15T04:01:13.107Z,9.53
2019-02-15T04:03:42.673Z,9.00
2019-02-15T04:06:10.505Z,8.60
2019-02-15T04:08:38.265Z,9.23
2019-02-15T04:11:06.199Z,12.00
2019-02-15T04:13:34.001Z,9.60
2019-02-15T04:16:01.803Z,13.27
2019-02-15T04:18:29.584Z,11.17
2019-02-15T04:20:57.508Z,12.73
2019-02-15T04:23:25.261Z,10.57
2019-02-15T04:25:53.229Z,9.17
2019-02-15T04:28:21.033Z,8.87
2019-02-15T04:30:48.778Z,9.03
2019-02-15T04:33:16.536Z,11.23
2019-02-15T04:35:44.504Z,11.60
2019-02-15T04:38:12.238Z,9.33
2019-02-15T04:40:40.206Z,10.83
2019-02-15T04:43:07.996Z,9.63
2019-02-15T04:45:35.924Z,8.53
2019-02-15T04:48:03.698Z,9.20
2019-02-15T04:50:31.708Z,9.73
2019-02-15T04:52:59.450Z,10.17
2019-02-15T04:55:27.262Z,8.27
2019-02-15T04:57:55.053Z,10.33
2019-02-15T05:00:23.026Z,10.23
2019-02-15T05:02:50.792Z,8.80
2019-02-15T05:05:18.783Z,7.60
2019-02-15T05:07:46.555Z,10.23
2019-02-15T05:10:14.528Z,8.60
2019-02-15T05:12:42.286Z,12.03
2019-02-15T05:15:10.126Z,8.53
2019-02-15T05:17:38.037Z,8.63
2019-02-15T05:20:06.065Z,8.23
2019-02-15T05:22:34.084Z,10.07
2019-02-15T05:25:01.859Z,8.27
2019-02-15T05:27:29.586Z,10.97
2019-02-15T05:29:57.407Z,8.73
2019-02-15T05:32:25.174Z,11.30
2019-02-15T05:34:52.944Z,9.77
2019-02-15T05:37:20.931Z,9.10
2019-02-15T05:39:48.726Z,13.23
2019-02-15T05:42:16.497Z,10.63
2019-02-15T05:44:44.277Z,8.50
2019-02-15T05:47:12.055Z,9.67
2019-02-15T05:49:39.860Z,12.37
2019-02-15T05:52:07.636Z,10.47
2019-02-15T05:54:35.403Z,13.30
2019-02-15T05:57:03.436Z,10.97
2019-02-15T05:59:31.185Z,12.77
2019-02-15T06:01:58.980Z,12.30
2019-02-15T06:04:26.755Z,14.37
2019-02-15T06:06:54.562Z,13.37
2019-02-15T06:09:22.352Z,11.77
2019-02-15T06:11:50.113Z,13.33
2019-02-15T06:14:18.121Z,13.00
2019-02-15T06:16:45.911Z,10.30
2019-02-15T06:19:13.685Z,11.77
2019-02-15T06:21:41.442Z,9.93
2019-02-15T06:24:09.230Z,12.83
2019-02-15T06:26:37.037Z,13.87
2019-02-15T06:29:04.837Z,10.07
2019-02-15T06:31:32.680Z,13.43
2019-02-15T06:34:00.478Z,9.57
2019-02-15T06:36:32.804Z,9.10
2019-02-15T06:39:00.597Z,19.83
2019-02-15T06:41:31.046Z,11.27
2019-02-15T06:43:58.844Z,10.30
2019-02-15T06:46:26.633Z,10.87
2019-02-15T06:48:54.630Z,10.47
2019-02-15T06:51:22.425Z,14.03
2019-02-15T06:53:50.487Z,11.83
2019-02-15T06:56:18.299Z,11.57
2019-02-15T06:59:11.574Z,12.60
2019-02-15T07:01:44.752Z,11.80
2019-02-15T07:04:47.246Z,8.77
2019-02-15T07:07:15.003Z,12.63
2019-02-15T07:09:42.778Z,11.93
2019-02-15T07:12:10.738Z,9.20
2019-02-15T07:14:38.523Z,12.37
2019-02-15T07:17:06.459Z,11.60
2019-02-15T07:19:37.146Z,9.57
2019-02-15T07:22:04.910Z,8.17
2019-02-15T07:24:32.742Z,9.30
2019-02-15T07:27:00.667Z,12.33
2019-02-15T07:29:28.615Z,10.07
2019-02-15T07:31:56.381Z,8.17
2019-02-15T07:34:24.158Z,13.17
2019-02-15T07:36:52.127Z,9.43
2019-02-15T07:39:20.103Z,11.97
2019-02-15T07:41:48.049Z,12.00
2019-02-15T07:44:15.875Z,10.20
2019-02-15T07:46:43.667Z,9.50
2019-02-15T07:49:11.427Z,7.73
2019-02-15T07:51:39.195Z,9.70
2019-02-15T07:54:07.162Z,12.23
2019-02-15T07:56:34.923Z,8.43
2019-02-15T07:59:02.690Z,10.63
2019-02-15T08:01:30.493Z,8.20
2019-02-15T08:03:58.250Z,12.20
2019-02-15T08:06:26.039Z,10.03
2019-02-15T08:08:53.825Z,8.93
2019-02-15T08:11:21.621Z,10.37
2019-02-15T08:13:49.376Z,10.07
2019-02-15T08:16:17.167Z,9.57
2019-02-15T08:18:45.107Z,9.70
2019-02-15T08:21:13.322Z,8.80
2019-02-15T08:23:41.168Z,7.93
2019-02-15T08:26:08.985Z,9.83
2019-02-15T08:28:36.763Z,8.53
2019-02-15T08:31:04.662Z,8.80
2019-02-15T08:33:32.453Z,10.80
2019-02-15T08:36:00.276Z,8.67
2019-02-15T08:38:28.293Z,9.23
2019-02-15T08:40:56.246Z,8.53
2019-02-15T08:43:24.038Z,11.97
2019-02-15T08:46:00.363Z,7.40
2019-02-15T08:48:21.532Z,8.63
2019-02-15T08:50:49.360Z,8.33
2019-02-15T08:53:17.185Z,8.20
2019-02-15T08:55:44.952Z,8.73
2019-02-15T08:58:12.739Z,8.90
2019-02-15T09:00:40.704Z,9.97
2019-02-15T09:03:08.491Z,9.77
2019-02-15T09:05:36.397Z,8.63
2019-02-15T09:08:04.186Z,8.03
2019-02-15T09:10:31.967Z,12.70
2019-02-15T09:12:59.733Z,8.20
2019-02-15T09:15:27.811Z,9.13
2019-02-15T09:17:55.591Z,9.47
2019-02-15T09:20:23.385Z,12.37
2019-02-15T09:22:51.215Z,9.73
2019-02-15T09:25:21.027Z,7.70
2019-02-15T09:28:14.456Z,8.57
2019-02-15T09:30:43.929Z,9.77
2019-02-15T09:33:11.737Z,8.47
2019-02-15T09:35:39.553Z,11.20
2019-02-15T09:38:07.364Z,12.53
2019-02-15T09:40:35.116Z,10.27
2019-02-15T09:43:02.935Z,12.07
2019-02-15T09:45:30.720Z,11.23
2019-02-15T09:47:58.585Z,14.50
2019-02-15T09:50:26.449Z,15.63
2019-02-15T09:52:54.261Z,29.83
2019-02-15T09:55:22.079Z,10.90
2019-02-15T09:57:49.909Z,8.90
2019-02-15T10:00:17.641Z,10.70
2019-02-15T10:02:45.509Z,7.83
2019-02-15T10:05:13.310Z,13.70
2019-02-15T10:07:42.067Z,10.20
2019-02-15T10:10:09.886Z,8.13
2019-02-15T10:12:37.697Z,14.23
2019-02-15T10:15:05.735Z,9.93
2019-02-15T10:17:33.615Z,9.80
2019-02-15T10:20:01.403Z,11.60
2019-02-15T10:22:29.248Z,13.77
2019-02-15T10:24:57.010Z,7.80
2019-02-15T10:27:24.776Z,8.00
2019-02-15T10:29:52.598Z,10.17
2019-02-15T10:32:22.427Z,10.60
2019-02-15T10:34:50.348Z,8.40
2019-02-15T10:37:18.212Z,7.33
2019-02-15T10:39:46.053Z,7.60
2019-02-15T10:42:13.893Z,8.83
2019-02-15T10:44:41.720Z,7.87
2019-02-15T10:47:14.185Z,7.50
2019-02-15T10:49:41.666Z,7.30
2019-02-15T10:52:09.466Z,6.87
2019-02-15T10:54:37.256Z,8.03
2019-02-15T10:57:05.052Z,8.23
2019-02-15T10:59:32.878Z,8.37
2019-02-15T11:02:00.676Z,6.87
2019-02-15T11:04:28.508Z,7.57
2019-02-15T11:06:56.318Z,6.97
2019-02-15T11:09:24.140Z,5.93
2019-02-15T11:11:51.972Z,9.30
2019-02-15T11:14:19.842Z,6.03
2019-02-15T11:16:47.670Z,5.80
2019-02-15T11:19:15.488Z,7.00
2019-02-15T11:21:43.330Z,9.00
2019-02-15T11:24:11.233Z,9.00
2019-02-15T11:26:39.071Z,8.03
2019-02-15T11:29:06.865Z,7.70
2019-02-15T11:31:34.638Z,10.30
2019-02-15T11:34:02.529Z,6.83
2019-02-15T11:36:30.423Z,7.83
2019-02-15T11:38:58.671Z,7.43
2019-02-15T11:41:26.494Z,6.47
2019-02-15T11:43:54.301Z,11.87
2019-02-15T11:46:22.086Z,7.47
2019-02-15T11:48:49.961Z,8.93
2019-02-15T11:51:17.834Z,6.27
2019-02-15T11:53:45.760Z,7.70
2019-02-15T11:56:13.484Z,5.63
2019-02-15T11:58:41.424Z,9.73
2019-02-15T12:01:09.211Z,8.30
2019-02-15T12:03:37.052Z,9.43
2019-02-15T12:06:05.130Z,7.37
2019-02-15T12:08:32.843Z,7.80
2019-02-15T12:11:00.679Z,8.00
2019-02-15T12:13:28.435Z,6.83
2019-02-15T12:15:56.218Z,6.30
2019-02-15T12:18:24.011Z,8.93
2019-02-15T12:20:51.843Z,8.97
2019-02-15T12:23:19.644Z,7.07
2019-02-15T12:25:47.466Z,8.20
2019-02-15T12:28:15.252Z,8.07
2019-02-15T12:30:43.095Z,7.63
2019-02-15T12:33:10.944Z,6.03
2019-02-15T12:35:38.799Z,8.20
2019-02-15T12:38:06.574Z,5.47
2019-02-15T12:40:34.328Z,5.50
2019-02-15T12:43:02.135Z,5.53
2019-02-15T12:45:30.177Z,8.87
2019-02-15T12:47:57.968Z,6.40
2019-02-15T12:50:25.860Z,5.90
2019-02-15T12:52:53.901Z,7.87
2019-02-15T12:55:21.762Z,6.37
2019-02-15T12:57:49.600Z,8.67
2019-02-15T13:00:17.392Z,6.60
2019-02-15T13:02:45.178Z,4.33
2019-02-15T13:05:13.353Z,5.17
2019-02-15T13:07:41.134Z,6.30
2019-02-15T13:10:10.129Z,5.47
2019-02-15T13:12:37.926Z,4.13
2019-02-15T13:15:06.501Z,5.03
2019-02-15T13:17:34.284Z,6.17
2019-02-15T13:20:05.337Z,5.50
2019-02-15T13:22:33.255Z,5.10
2019-02-15T13:25:03.775Z,6.30
2019-02-15T13:27:31.615Z,4.50
2019-02-15T13:29:59.504Z,4.50
2019-02-15T13:32:27.292Z,8.47
2019-02-15T13:34:55.131Z,4.60
2019-02-15T13:37:22.937Z,3.67
2019-02-15T13:39:51.119Z,7.67
2019-02-15T13:42:18.977Z,5.20
2019-02-15T13:44:46.979Z,6.03
2019-02-15T13:47:14.770Z,5.87
2019-02-15T13:49:42.815Z,3.60
2019-02-15T13:52:10.587Z,4.73
2019-02-15T13:54:38.578Z,4.90
2019-02-15T13:57:06.531Z,3.50
2019-02-15T13:59:34.311Z,3.97
2019-02-15T14:02:02.073Z,3.27
2019-02-15T14:04:29.874Z,3.83
2019-02-15T14:06:57.721Z,5.97
2019-02-15T14:09:25.511Z,4.53
2019-02-15T14:11:53.301Z,3.10
2019-02-15T14:14:21.065Z,4.80
2019-02-15T14:16:48.899Z,3.73
2019-02-15T14:19:16.924Z,3.30
2019-02-15T14:21:44.878Z,5.07
2019-02-15T14:24:12.664Z,3.97
2019-02-15T14:26:40.450Z,6.17
2019-02-15T14:29:08.208Z,2.73
2019-02-15T14:31:35.919Z,14.50
2019-02-15T14:34:03.690Z,3.03
2019-02-15T14:36:31.440Z,3.93
2019-02-15T14:38:59.228Z,4.13
2019-02-15T14:41:26.986Z,3.03
2019-02-15T14:43:54.748Z,3.50
2019-02-15T14:46:22.790Z,2.30
2019-02-15T14:48:50.609Z,2.90
2019-02-15T14:51:18.342Z,5.83
2019-02-15T14:53:46.420Z,4.03
2019-02-15T14:56:14.211Z,2.98
2019-02-15T14:58:42.038Z,3.98
2019-02-15T15:01:09.785Z,3.72
2019-02-15T15:03:37.761Z,4.27
2019-02-15T15:06:05.500Z,6.10
2019-02-15T15:08:33.297Z,3.85
2019-02-15T15:11:02.038Z,3.70
2019-02-15T15:13:29.856Z,3.90
2019-02-15T15:15:57.853Z,4.35
2019-02-15T15:18:25.867Z,2.95
2019-02-15T15:20:53.688Z,2.83
2019-02-15T15:23:21.465Z,4.10
2019-02-15T15:25:49.247Z,2.70
2019-02-15T15:28:17.000Z,2.03
2019-02-15T15:30:44.782Z,2.37
2019-02-15T15:33:12.608Z,1.80
2019-02-15T15:35:40.434Z,4.13
2019-02-15T15:38:08.300Z,2.60
2019-02-15T15:40:36.033Z,2.87
2019-02-15T15:43:03.899Z,2.83
2019-02-15T15:45:31.676Z,3.00
2019-02-15T15:47:59.476Z,2.90
2019-02-15T15:50:27.289Z,1.40
2019-02-15T15:52:55.023Z,2.10
2019-02-15T15:55:22.856Z,3.17
2019-02-15T15:57:50.711Z,5.10
2019-02-15T16:00:18.533Z,3.13
2019-02-15T16:02:46.327Z,2.20
2019-02-15T16:05:14.170Z,1.93
2019-02-15T16:07:43.715Z,5.43
2019-02-15T16:10:11.793Z,4.90
2019-02-15T16:12:39.634Z,3.70
2019-02-15T16:15:08.723Z,3.67
2019-02-15T16:17:36.527Z,4.47
2019-02-15T16:20:05.139Z,7.57
2019-02-15T16:22:33.267Z,6.37
2019-02-15T16:25:01.046Z,6.10
2019-02-15T16:27:28.820Z,4.27
2019-02-15T16:29:56.637Z,4.13
2019-02-15T16:32:24.388Z,3.27
2019-02-15T16:34:52.188Z,3.47
2019-02-15T16:37:20.064Z,7.80
2019-02-15T16:39:47.865Z,5.23
2019-02-15T16:42:16.885Z,5.33
2019-02-15T16:44:47.207Z,6.83
2019-02-15T16:47:14.995Z,5.33
2019-02-15T16:49:42.846Z,11.60
2019-02-15T16:52:13.646Z,9.20
2019-02-15T16:54:41.427Z,2.90
2019-02-15T16:57:09.299Z,3.73
2019-02-15T16:59:37.149Z,6.23
2019-02-15T17:02:04.934Z,5.83
2019-02-15T17:04:32.703Z,5.40
2019-02-15T17:07:00.490Z,4.90
2019-02-15T17:09:28.265Z,5.93
2019-02-15T17:11:56.093Z,6.23
2019-02-15T17:14:23.851Z,6.93
2019-02-15T17:16:51.625Z,6.57
2019-02-15T17:19:19.412Z,6.60
2019-02-15T17:21:47.253Z,5.80
2019-02-15T17:24:15.006Z,9.60
2019-02-15T17:26:42.806Z,6.53
2019-02-15T17:29:10.607Z,7.00
2019-02-15T17:31:38.396Z,7.23
2019-02-15T17:34:06.182Z,7.87
2019-02-15T17:36:34.007Z,9.90
2019-02-15T17:39:01.770Z,7.90
2019-02-15T17:41:29.574Z,7.60
2019-02-15T17:43:57.335Z,10.80
2019-02-15T17:46:25.130Z,8.60
2019-02-15T17:49:00.578Z,8.40
2019-02-15T17:51:22.639Z,8.40
2019-02-15T17:53:50.749Z,6.13
2019-02-15T17:56:18.561Z,10.73
2019-02-15T17:58:46.393Z,7.00
2019-02-15T18:01:14.195Z,7.43
2019-02-15T18:03:42.008Z,7.00
2019-02-15T18:06:09.786Z,13.17
2019-02-15T18:08:37.607Z,9.97
2019-02-15T18:11:05.372Z,8.83
2019-02-15T18:13:33.157Z,10.27
2019-02-15T18:16:01.739Z,13.60
2019-02-15T18:18:29.526Z,9.13
2019-02-15T18:20:57.348Z,9.97
2019-02-15T18:23:27.280Z,8.97
2019-02-15T18:25:55.052Z,10.73
2019-02-15T18:28:22.893Z,9.03
2019-02-15T18:30:50.685Z,8.33
2019-02-15T18:33:18.487Z,12.57
2019-02-15T18:35:46.278Z,13.87
2019-02-15T18:38:14.071Z,18.20
2019-02-15T18:40:41.815Z,17.73
2019-02-15T18:43:09.613Z,15.03
2019-02-15T18:45:37.374Z,15.33
2019-02-15T18:48:05.166Z,16.73
2019-02-15T18:50:32.932Z,15.80
2019-02-15T18:53:00.832Z,20.77
2019-02-15T18:55:28.600Z,16.57
2019-02-15T18:57:56.386Z,15.83
2019-02-15T19:00:24.188Z,21.03
2019-02-15T19:02:51.967Z,21.97
2019-02-15T19:05:19.721Z,21.07
2019-02-15T19:07:47.544Z,18.17
2019-02-15T19:10:16.757Z,19.10
2019-02-15T19:12:44.528Z,18.13
2019-02-15T19:15:13.297Z,17.03
2019-02-15T19:17:41.045Z,21.47
2019-02-15T19:20:09.793Z,17.73
2019-02-15T19:22:37.669Z,20.43
2019-02-15T19:25:07.233Z,16.53
2019-02-15T19:27:35.005Z,18.53
2019-02-15T19:30:04.985Z,22.20
2019-02-15T19:32:32.769Z,19.73
2019-02-15T19:35:00.569Z,18.90
2019-02-15T19:37:28.352Z,18.80
2019-02-15T19:39:56.243Z,19.80
2019-02-15T19:42:24.237Z,21.83
2019-02-15T19:44:52.050Z,20.13
2019-02-15T19:47:21.028Z,19.10
2019-02-15T19:49:48.923Z,19.63
2019-02-15T19:52:16.691Z,18.93
2019-02-15T19:54:44.806Z,22.03
2019-02-15T19:57:12.585Z,25.60
2019-02-15T19:59:40.619Z,22.40
2019-02-15T20:02:08.405Z,19.63
2019-02-15T20:04:36.284Z,22.03
2019-02-15T20:07:04.334Z,23.60
2019-02-15T20:09:32.059Z,22.90
2019-02-15T20:11:59.837Z,19.20
2019-02-15T20:14:27.605Z,19.13
2019-02-15T20:16:55.431Z,21.50
2019-02-15T20:19:23.216Z,21.63
2019-02-15T20:21:51.042Z,22.83
2019-02-15T20:24:18.880Z,25.77
2019-02-15T20:26:46.707Z,22.47
2019-02-15T20:29:14.631Z,21.43
2019-02-15T20:31:42.562Z,22.07
2019-02-15T20:34:10.311Z,20.63
2019-02-15T20:36:38.106Z,25.37
2019-02-15T20:39:05.903Z,23.50
2019-02-15T20:41:33.693Z,24.07
2019-02-15T20:44:01.535Z,21.20
2019-02-15T20:46:30.227Z,18.83
2019-02-15T20:49:04.728Z,22.23
2019-02-15T20:51:27.685Z,21.67
2019-02-15T20:53:55.482Z,21.87
2019-02-15T20:56:23.293Z,20.23
2019-02-15T20:58:51.111Z,21.90
2019-02-15T21:01:18.912Z,21.13
2019-02-15T21:03:46.686Z,23.20
2019-02-15T21:06:14.789Z,21.87
2019-02-15T21:08:42.554Z,21.57
2019-02-15T21:11:10.423Z,25.77
2019-02-15T21:13:38.264Z,26.10
2019-02-15T21:16:06.081Z,25.13
2019-02-15T21:18:33.902Z,26.60
2019-02-15T21:21:01.719Z,21.40
2019-02-15T21:23:29.574Z,20.73
2019-02-15T21:25:57.411Z,26.27
2019-02-15T21:28:25.250Z,20.37
2019-02-15T21:30:53.045Z,17.93
2019-02-15T21:33:20.818Z,25.00
2019-02-15T21:35:48.668Z,19.00
2019-02-15T21:38:16.432Z,21.80
2019-02-15T21:40:44.285Z,20.37
2019-02-15T21:43:12.082Z,23.17
2019-02-15T21:45:39.892Z,23.87
2019-02-15T21:48:07.705Z,20.83
2019-02-15T21:50:35.483Z,19.27
2019-02-15T21:53:03.251Z,18.60
2019-02-15T21:55:31.049Z,17.77
2019-02-15T21:58:01.613Z,18.43
2019-02-15T22:00:28.673Z,21.90
2019-02-15T22:02:56.472Z,18.87
2019-02-15T22:05:24.273Z,20.43
2019-02-15T22:07:52.096Z,21.83
2019-02-15T22:10:19.898Z,17.87
2019-02-15T22:12:47.718Z,20.90
2019-02-15T22:15:15.529Z,20.67
2019-02-15T22:17:43.305Z,14.43
2019-02-15T22:20:11.806Z,13.33
2019-02-15T22:22:39.602Z,17.87
2019-02-15T22:25:07.577Z,19.53
2019-02-15T22:27:35.381Z,19.03
2019-02-15T22:30:04.588Z,14.27
2019-02-15T22:32:32.649Z,14.53
2019-02-15T22:35:07.864Z,17.97
2019-02-15T22:37:35.755Z,14.93
2019-02-15T22:40:27.044Z,14.77
2019-02-15T22:42:55.080Z,16.50
2019-02-15T22:45:22.820Z,15.27
2019-02-15T22:47:50.571Z,14.97
2019-02-15T22:50:18.399Z,17.67
2019-02-15T22:52:46.157Z,16.87
2019-02-15T22:55:13.914Z,23.93
2019-02-15T22:57:41.706Z,17.33
2019-02-15T23:00:23.095Z,15.03
2019-02-15T23:02:50.835Z,12.83
2019-02-15T23:05:18.574Z,10.77
2019-02-15T23:07:46.542Z,9.63
2019-02-15T23:10:14.536Z,11.47
2019-02-15T23:12:42.274Z,13.17
2019-02-15T23:15:10.252Z,12.13
2019-02-15T23:17:38.232Z,9.63
2019-02-15T23:20:06.054Z,9.53
2019-02-15T23:22:33.985Z,9.77
2019-02-15T23:25:01.763Z,10.57
2019-02-15T23:27:29.487Z,14.53
2019-02-15T23:29:57.278Z,12.57
2019-02-15T23:32:25.210Z,11.03
2019-02-15T23:34:53.019Z,9.27
2019-02-15T23:37:20.974Z,9.87
2019-02-15T23:39:48.792Z,9.03
2019-02-15T23:42:16.550Z,9.00
2019-02-15T23:44:44.293Z,8.60
2019-02-15T23:47:12.037Z,10.60
2019-02-15T23:49:39.776Z,9.23
2019-02-15T23:52:07.487Z,12.67
2019-02-15T23:54:35.314Z,8.67
2019-02-15T23:57:03.211Z,9.20
2019-02-15T23:59:31.004Z,8.63
